Terminal Aerodrome Forecast
Issued by NWS

Home | Current Version | Previous Version | Graphics & Text | Print | Product List | Glossary On
Versions: 1 2 3 4 5 6 7 8 9 10 11 12 13 14
000
FTUS43 KGRB 171700
TAFAUW
TAF
KAUW 171722Z 1718/1818 30008KT P6SM SCT008 OVC016
      TEMPO 1718/1722 BKN008
     FM172200 29010KT P6SM BKN016
     FM180200 31004KT P6SM FEW030 FEW250
     FM181100 31003KT P6SM SCT120 SCT250
     FM181500 33006KT P6SM BKN120 BKN250=

USA.gov is the U.S. government's official web portal to all federal, state and local government web resources and services.